createdAt,value
2022-08-20T00:00:55.149Z,101451.59
2022-08-20T00:03:34.839Z,101455.16
2022-08-20T00:06:10.201Z,101456.94
2022-08-20T00:08:40.188Z,101460.50
2022-08-20T00:11:14.054Z,101459.59
2022-08-20T00:13:46.586Z,101462.28
2022-08-20T00:16:18.333Z,101457.84
2022-08-20T00:18:48.930Z,101452.47
2022-08-20T00:21:25.062Z,101455.16
2022-08-20T00:23:57.352Z,101445.34
2022-08-20T00:26:27.981Z,101450.72
2022-08-20T00:28:58.181Z,101456.94
2022-08-20T00:31:28.564Z,101457.81
2022-08-20T00:33:58.329Z,101463.19
2022-08-20T00:36:32.720Z,101464.94
2022-08-20T00:39:03.321Z,101464.06
2022-08-20T00:41:33.850Z,101468.50
2022-08-20T00:44:13.282Z,101472.09
2022-08-20T00:46:44.507Z,101464.97
2022-08-20T00:49:19.600Z,101464.06
2022-08-20T00:51:55.815Z,101463.19
2022-08-20T00:54:29.080Z,101458.75
2022-08-20T00:57:03.607Z,101465.84
2022-08-20T00:59:37.385Z,101463.16
2022-08-20T01:02:10.483Z,101463.19
2022-08-20T01:04:40.755Z,101464.97
2022-08-20T01:07:13.762Z,101466.75
2022-08-20T01:09:58.094Z,101471.22
2022-08-20T01:12:30.560Z,101464.06
2022-08-20T01:15:02.742Z,101459.59
2022-08-20T01:17:37.277Z,101460.50
2022-08-20T01:20:13.509Z,101459.59
2022-08-20T01:23:11.262Z,101455.16
2022-08-20T01:25:50.405Z,101462.28
2022-08-20T01:28:25.740Z,101453.34
2022-08-20T01:30:56.203Z,101458.69
2022-08-20T01:33:27.189Z,101465.81
2022-08-20T01:35:57.976Z,101461.34
2022-08-20T01:38:27.839Z,101471.16
2022-08-20T01:41:28.518Z,101464.91
2022-08-20T01:44:00.114Z,101465.78
2022-08-20T01:46:34.969Z,101455.03
2022-08-20T01:49:15.663Z,101457.72
2022-08-20T01:51:53.918Z,101455.91
2022-08-20T01:54:24.878Z,101462.09
2022-08-20T01:57:01.635Z,101463.00
2022-08-20T01:59:32.116Z,101470.13
2022-08-20T02:02:02.935Z,101473.66
2022-08-20T02:04:32.834Z,101466.50
2022-08-20T02:07:04.917Z,101478.06
2022-08-20T02:09:38.044Z,101483.41
2022-08-20T02:12:14.443Z,101475.34
2022-08-20T02:14:46.151Z,101467.34
2022-08-20T02:17:18.328Z,101475.34
2022-08-20T02:19:51.796Z,101478.00
2022-08-20T02:22:26.398Z,101484.19
2022-08-20T02:24:57.488Z,101483.28
2022-08-20T02:27:29.815Z,101477.03
2022-08-20T02:29:59.590Z,101464.56
2022-08-20T02:32:33.119Z,101457.44
2022-08-20T02:35:04.617Z,101471.66
2022-08-20T02:37:34.865Z,101483.19
2022-08-20T02:40:05.459Z,101491.19
2022-08-20T02:42:42.019Z,101492.03
2022-08-20T02:45:18.873Z,101492.91
2022-08-20T02:47:49.712Z,101494.63
2022-08-20T02:50:22.441Z,101496.41
2022-08-20T02:52:52.434Z,101491.03
2022-08-20T02:55:27.046Z,101491.91
2022-08-20T02:58:02.356Z,101493.66
2022-08-20T03:00:38.276Z,101497.19
2022-08-20T03:03:09.008Z,101484.72
2022-08-20T03:05:41.434Z,101476.72
2022-08-20T03:08:12.996Z,101487.38
2022-08-20T03:10:45.112Z,101502.47
2022-08-20T03:13:18.818Z,101506.88
2022-08-20T03:15:55.261Z,101493.53
2022-08-20T03:18:30.511Z,101496.19
2022-08-20T03:21:00.273Z,101490.84
2022-08-20T03:23:30.078Z,101492.59
2022-08-20T03:25:59.887Z,101502.38
2022-08-20T03:28:32.275Z,101495.28
2022-08-20T03:31:02.937Z,101491.69
2022-08-20T03:33:32.794Z,101491.69
2022-08-20T03:36:02.535Z,101493.50
2022-08-20T03:38:33.520Z,101496.16
2022-08-20T03:41:03.662Z,101492.59
2022-08-20T03:43:37.542Z,101501.44
2022-08-20T03:46:22.051Z,101509.44
2022-08-20T03:48:56.663Z,101498.75
2022-08-20T03:51:31.214Z,101504.97
2022-08-20T03:54:01.541Z,101501.38
2022-08-20T03:56:31.871Z,101503.16
2022-08-20T03:59:04.251Z,101504.91
2022-08-20T04:01:44.614Z,101513.78
2022-08-20T04:04:16.752Z,101503.13
2022-08-20T04:06:47.206Z,101507.56
2022-08-20T04:09:17.248Z,101511.13
2022-08-20T04:11:47.115Z,101506.66
2022-08-20T04:14:20.600Z,101513.78
2022-08-20T04:16:50.592Z,101514.66
2022-08-20T04:19:20.971Z,101511.09
2022-08-20T04:21:50.689Z,101511.97
2022-08-20T04:24:22.640Z,101510.22
2022-08-20T04:27:02.935Z,101513.75
2022-08-20T04:29:36.680Z,101519.06
2022-08-20T04:32:08.390Z,101513.72
2022-08-20T04:34:39.352Z,101520.81
2022-08-20T04:37:16.989Z,101519.91
2022-08-20T04:40:07.424Z,101514.56
2022-08-20T04:42:41.756Z,101519.84
2022-08-20T04:45:16.165Z,101522.50
2022-08-20T04:47:46.407Z,101524.28
2022-08-20T04:50:16.488Z,101527.03
2022-08-20T04:52:47.781Z,101527.94
2022-08-20T04:55:17.665Z,101530.75
2022-08-20T04:57:48.040Z,101532.69
2022-08-20T05:00:20.745Z,101546.16
2022-08-20T05:02:50.481Z,101548.00
2022-08-20T05:05:21.724Z,101548.00
2022-08-20T05:07:51.503Z,101543.53
2022-08-20T05:10:23.705Z,101546.25
2022-08-20T05:12:56.635Z,101555.16
2022-08-20T05:15:29.664Z,101544.47
2022-08-20T05:18:04.852Z,101545.41
2022-08-20T05:20:38.917Z,101548.03
2022-08-20T05:23:10.565Z,101535.53
2022-08-20T05:25:41.256Z,101533.75
2022-08-20T05:28:13.017Z,101543.53
2022-08-20T05:30:47.651Z,101541.75
2022-08-20T05:33:20.095Z,101536.34
2022-08-20T05:35:52.695Z,101538.13
2022-08-20T05:38:24.699Z,101547.00
2022-08-20T05:40:55.096Z,101548.75
2022-08-20T05:43:25.051Z,101562.09
2022-08-20T05:45:57.617Z,101563.84
2022-08-20T05:48:28.161Z,101559.41
2022-08-20T05:50:58.744Z,101562.06
2022-08-20T05:53:28.830Z,101562.03
2022-08-20T05:55:59.706Z,101560.28
2022-08-20T05:58:31.225Z,101571.09
2022-08-20T06:01:03.801Z,101573.06
2022-08-20T06:03:46.015Z,101579.44
2022-08-20T06:06:45.046Z,101573.38
2022-08-20T06:09:06.157Z,101565.50
2022-08-20T06:11:37.354Z,101569.16
2022-08-20T06:14:07.441Z,101564.78
2022-08-20T06:16:39.895Z,101568.41
2022-08-20T06:19:27.307Z,101579.16
2022-08-20T06:22:02.578Z,101580.06
2022-08-20T06:24:47.933Z,101579.13
2022-08-20T06:27:19.153Z,101579.16
2022-08-20T06:29:49.345Z,101575.53
2022-08-20T06:32:32.045Z,101580.88
2022-08-20T06:35:04.299Z,101576.38
2022-08-20T06:37:36.620Z,101572.75
2022-08-20T06:40:10.330Z,101577.13
2022-08-20T06:42:48.093Z,101579.75
2022-08-20T06:45:21.719Z,101569.88
2022-08-20T06:47:55.930Z,101571.63
2022-08-20T06:50:30.611Z,101569.78
2022-08-20T06:53:00.518Z,101566.13
2022-08-20T06:55:30.721Z,101565.19
2022-08-20T06:58:01.647Z,101574.06
2022-08-20T07:00:33.433Z,101573.94
2022-08-20T07:03:06.473Z,101578.34
2022-08-20T07:05:42.300Z,101570.19
2022-08-20T07:08:13.680Z,101570.09
2022-08-20T07:10:44.764Z,101568.16
2022-08-20T07:13:16.466Z,101564.47
2022-08-20T07:15:47.841Z,101568.84
2022-08-20T07:18:29.108Z,101567.78
2022-08-20T07:20:59.941Z,101570.31
2022-08-20T07:23:31.580Z,101580.03
2022-08-20T07:26:01.653Z,101579.88
2022-08-20T07:28:32.156Z,101579.88
2022-08-20T07:31:14.861Z,101587.03
2022-08-20T07:33:50.318Z,101581.63
2022-08-20T07:36:21.156Z,101583.50
2022-08-20T07:38:52.532Z,101586.19
2022-08-20T07:41:23.059Z,101584.28
2022-08-20T07:43:52.770Z,101581.41
2022-08-20T07:46:25.012Z,101592.00
2022-08-20T07:49:05.510Z,101587.38
2022-08-20T07:51:35.960Z,101591.88
2022-08-20T07:54:06.180Z,101602.66
2022-08-20T07:56:35.890Z,101602.59
2022-08-20T07:59:06.495Z,101604.28
2022-08-20T08:01:36.237Z,101598.00
2022-08-20T08:04:08.781Z,101600.66
2022-08-20T08:06:38.535Z,101597.00
2022-08-20T08:09:10.436Z,101599.59
2022-08-20T08:11:47.457Z,101604.84
2022-08-20T08:14:21.449Z,101600.22
2022-08-20T08:16:51.185Z,101604.66
2022-08-20T08:19:24.406Z,101602.97
2022-08-20T08:21:54.313Z,101609.25
2022-08-20T08:24:28.223Z,101605.69
2022-08-20T08:26:58.385Z,101601.22
2022-08-20T08:29:28.880Z,101588.56
2022-08-20T08:31:59.049Z,101599.22
2022-08-20T08:34:31.767Z,101598.28
2022-08-20T08:37:05.548Z,101604.47
2022-08-20T08:39:36.731Z,101599.94
2022-08-20T08:42:26.128Z,101592.69
2022-08-20T08:44:58.118Z,101605.16
2022-08-20T08:47:31.709Z,101606.91
2022-08-20T08:50:05.785Z,101609.63
2022-08-20T08:52:42.255Z,101608.03
2022-08-20T08:55:17.424Z,101612.66
2022-08-20T08:57:47.175Z,101614.63
2022-08-20T09:00:21.457Z,101613.81
2022-08-20T09:03:00.490Z,101613.00
2022-08-20T09:05:39.532Z,101612.22
2022-08-20T09:08:17.212Z,101617.72
2022-08-20T09:10:47.252Z,101618.66
2022-08-20T09:13:17.014Z,101614.09
2022-08-20T09:15:46.777Z,101616.69
2022-08-20T09:18:16.511Z,101620.22
2022-08-20T09:20:48.858Z,101633.59
2022-08-20T09:23:18.589Z,101629.03
2022-08-20T09:25:48.321Z,101623.56
2022-08-20T09:28:18.403Z,101631.59
2022-08-20T09:30:48.194Z,101627.03
2022-08-20T09:33:18.945Z,101622.50
2022-08-20T09:35:51.391Z,101626.97
2022-08-20T09:38:21.357Z,101632.47
2022-08-20T09:40:51.113Z,101631.78
2022-08-20T09:43:20.867Z,101630.16
2022-08-20T09:45:50.757Z,101629.41
2022-08-20T09:48:20.485Z,101623.31
2022-08-20T09:51:01.980Z,101627.00
2022-08-20T09:53:33.193Z,101629.81
2022-08-20T09:56:03.011Z,101627.19
2022-08-20T09:58:38.364Z,101626.38
2022-08-20T10:01:14.334Z,101629.19
2022-08-20T10:03:44.347Z,101628.28
2022-08-20T10:06:17.978Z,101626.44
2022-08-20T10:08:47.773Z,101627.31
2022-08-20T10:11:17.843Z,101629.03
2022-08-20T10:13:47.785Z,101626.22
2022-08-20T10:16:17.504Z,101630.63
2022-08-20T10:18:49.333Z,101629.69
2022-08-20T10:21:22.009Z,101627.00
2022-08-20T10:23:51.801Z,101632.44
2022-08-20T10:26:21.515Z,101626.19
2022-08-20T10:28:51.231Z,101630.72
2022-08-20T10:31:20.981Z,101630.72
2022-08-20T10:33:50.706Z,101626.22
2022-08-20T10:36:23.100Z,101629.81
2022-08-20T10:38:52.843Z,101635.19
2022-08-20T10:41:22.732Z,101637.88
2022-08-20T10:43:52.666Z,101640.63
2022-08-20T10:46:22.485Z,101644.28
2022-08-20T10:48:52.376Z,101641.66
2022-08-20T10:51:32.432Z,101637.19
2022-08-20T10:54:02.728Z,101640.81
2022-08-20T10:56:38.031Z,101639.00
2022-08-20T10:59:07.775Z,101635.38
2022-08-20T11:01:37.566Z,101645.19
2022-08-20T11:04:07.677Z,101646.09
2022-08-20T11:06:40.038Z,101648.78
2022-08-20T11:09:09.892Z,101652.41
2022-08-20T11:11:39.701Z,101643.38
2022-08-20T11:14:09.415Z,101649.56
2022-08-20T11:16:39.136Z,101647.75
2022-08-20T11:19:08.895Z,101646.00
2022-08-20T11:21:41.218Z,101647.84
2022-08-20T11:24:11.034Z,101658.63
2022-08-20T11:26:40.836Z,101649.56
2022-08-20T11:29:10.614Z,101652.25
2022-08-20T11:31:40.326Z,101660.31
2022-08-20T11:34:12.718Z,101654.13
2022-08-20T11:36:45.925Z,101646.97
2022-08-20T11:39:15.770Z,101657.75
2022-08-20T11:41:46.885Z,101652.38
2022-08-20T11:44:20.790Z,101651.44
2022-08-20T11:46:51.277Z,101646.88
2022-08-20T11:49:21.029Z,101637.81
2022-08-20T11:51:53.376Z,101632.31
2022-08-20T11:54:23.128Z,101636.75
2022-08-20T11:56:52.851Z,101629.44
2022-08-20T11:59:22.569Z,101626.63
2022-08-20T12:02:03.202Z,101635.59
2022-08-20T12:04:35.177Z,101639.22
2022-08-20T12:07:15.181Z,101638.41
2022-08-20T12:09:51.107Z,101644.66
2022-08-20T12:12:23.564Z,101639.34
2022-08-20T12:14:53.667Z,101639.34
2022-08-20T12:17:28.766Z,101647.28
2022-08-20T12:20:01.557Z,101640.91
2022-08-20T12:22:33.912Z,101644.44
2022-08-20T12:25:03.696Z,101639.00
2022-08-20T12:27:35.378Z,101647.00
2022-08-20T12:30:09.293Z,101641.59
2022-08-20T12:32:39.234Z,101652.44
2022-08-20T12:35:11.326Z,101651.63
2022-08-20T12:37:44.555Z,101649.88
2022-08-20T12:40:17.401Z,101651.63
2022-08-20T12:42:56.688Z,101650.75
2022-08-20T12:45:27.840Z,101648.97
2022-08-20T12:48:04.003Z,101648.97
2022-08-20T12:50:34.440Z,101649.88
2022-08-20T12:53:07.917Z,101640.00
2022-08-20T12:55:37.941Z,101648.06
2022-08-20T12:58:10.873Z,101648.97
2022-08-20T13:00:47.261Z,101650.75
2022-08-20T13:03:20.276Z,101644.44
2022-08-20T13:05:50.811Z,101639.94
2022-08-20T13:08:23.168Z,101646.25
2022-08-20T13:10:52.917Z,101636.41
2022-08-20T13:13:22.622Z,101647.25
2022-08-20T13:15:53.073Z,101635.66
2022-08-20T13:18:23.134Z,101635.66
2022-08-20T13:20:52.953Z,101635.69
2022-08-20T13:23:25.282Z,101630.28
2022-08-20T13:25:55.521Z,101631.16
2022-08-20T13:28:25.219Z,101627.56
2022-08-20T13:30:55.001Z,101630.31
2022-08-20T13:33:25.354Z,101627.63
2022-08-20T13:35:55.428Z,101624.13
2022-08-20T13:38:28.289Z,101624.16
2022-08-20T13:40:58.221Z,101634.91
2022-08-20T13:43:27.950Z,101621.41
2022-08-20T13:45:57.665Z,101624.13
2022-08-20T13:48:27.400Z,101625.00
2022-08-20T13:50:57.140Z,101616.97
2022-08-20T13:53:29.802Z,101617.91
2022-08-20T13:56:00.001Z,101611.66
2022-08-20T13:58:29.936Z,101617.00
2022-08-20T14:00:59.744Z,101612.53
2022-08-20T14:03:29.502Z,101619.63
2022-08-20T14:05:59.253Z,101617.81
2022-08-20T14:08:31.972Z,101617.84
2022-08-20T14:11:01.890Z,101611.63
2022-08-20T14:13:31.861Z,101620.59
2022-08-20T14:16:01.579Z,101617.06
2022-08-20T14:18:31.314Z,101611.63
2022-08-20T14:21:01.042Z,101608.94
2022-08-20T14:23:36.837Z,101616.09
2022-08-20T14:26:06.792Z,101616.03
2022-08-20T14:28:36.569Z,101609.78
2022-08-20T14:31:06.295Z,101605.28
2022-08-20T14:33:36.273Z,101607.03
2022-08-20T14:36:07.470Z,101606.16
2022-08-20T14:38:45.137Z,101613.34
2022-08-20T14:41:14.873Z,101616.13
2022-08-20T14:43:44.634Z,101616.13
2022-08-20T14:46:14.340Z,101612.59
2022-08-20T14:48:44.121Z,101611.78
2022-08-20T14:51:13.870Z,101616.34
2022-08-20T14:53:46.916Z,101616.38
2022-08-20T14:56:18.112Z,101618.25
2022-08-20T14:58:47.857Z,101610.25
2022-08-20T15:01:17.697Z,101604.09
2022-08-20T15:03:47.448Z,101619.38
2022-08-20T15:06:22.076Z,101607.81
2022-08-20T15:08:54.773Z,101616.81
2022-08-20T15:11:24.480Z,101614.16
2022-08-20T15:13:54.469Z,101612.34
2022-08-20T15:16:24.195Z,101606.09
2022-08-20T15:18:59.819Z,101611.47
2022-08-20T15:21:30.088Z,101614.22
2022-08-20T15:24:19.251Z,101626.78
2022-08-20T15:26:49.533Z,101627.75
2022-08-20T15:29:23.271Z,101622.38
2022-08-20T15:31:53.500Z,101628.69
2022-08-20T15:34:23.248Z,101622.41
2022-08-20T15:36:52.971Z,101609.88
2022-08-20T15:39:25.316Z,101616.13
2022-08-20T15:41:54.997Z,101616.13
2022-08-20T15:44:24.724Z,101609.84
2022-08-20T15:46:54.684Z,101607.16
2022-08-20T15:49:26.289Z,101612.53
2022-08-20T15:51:56.028Z,101615.25
2022-08-20T15:54:30.812Z,101613.47
2022-08-20T15:57:09.003Z,101610.78
2022-08-20T15:59:56.633Z,101613.47
2022-08-20T16:02:47.156Z,101612.63
2022-08-20T16:05:25.633Z,101620.75
2022-08-20T16:08:07.159Z,101625.25
2022-08-20T16:10:50.467Z,101622.63
2022-08-20T16:13:32.080Z,101620.88
2022-08-20T16:16:05.151Z,101631.63
2022-08-20T16:18:39.148Z,101635.19
2022-08-20T16:21:12.521Z,101629.81
2022-08-20T16:23:45.435Z,101635.19
2022-08-20T16:26:29.519Z,101640.56
2022-08-20T16:29:11.874Z,101632.53
2022-08-20T16:31:49.130Z,101632.53
2022-08-20T16:34:33.593Z,101632.50
2022-08-20T16:37:13.112Z,101637.03
2022-08-20T16:39:53.126Z,101628.09
2022-08-20T16:42:28.752Z,101627.19
2022-08-20T16:44:59.624Z,101629.03
2022-08-20T16:47:32.204Z,101634.44
2022-08-20T16:50:07.623Z,101638.94
2022-08-20T16:52:37.377Z,101642.50
2022-08-20T16:55:07.605Z,101648.78
2022-08-20T16:57:39.988Z,101649.69
2022-08-20T17:00:15.443Z,101644.31
2022-08-20T17:02:56.888Z,101652.44
2022-08-20T17:05:29.555Z,101641.75
2022-08-20T17:08:04.675Z,101651.63
2022-08-20T17:10:37.613Z,101644.53
2022-08-20T17:13:28.206Z,101648.13
2022-08-20T17:16:01.368Z,101638.28
2022-08-20T17:18:34.042Z,101637.41
2022-08-20T17:21:06.299Z,101636.53
2022-08-20T17:23:54.988Z,101633.88
2022-08-20T17:26:35.271Z,101637.47
2022-08-20T17:29:18.047Z,101633.91
2022-08-20T17:31:50.490Z,101637.50
2022-08-20T17:34:22.762Z,101636.59
2022-08-20T17:36:59.732Z,101628.63
2022-08-20T17:39:32.250Z,101629.53
2022-08-20T17:42:09.789Z,101632.19
2022-08-20T17:44:48.482Z,101637.59
2022-08-20T17:47:19.955Z,101630.47
2022-08-20T17:50:02.419Z,101634.06
2022-08-20T17:52:42.405Z,101638.56
2022-08-20T17:55:15.040Z,101642.16
2022-08-20T17:57:48.519Z,101637.69
2022-08-20T18:00:25.773Z,101642.22
2022-08-20T18:03:00.285Z,101645.78
2022-08-20T18:05:34.308Z,101638.66
2022-08-20T18:08:22.132Z,101646.69
2022-08-20T18:11:03.643Z,101639.53
2022-08-20T18:13:58.444Z,101641.31
2022-08-20T18:16:36.655Z,101638.66
2022-08-20T18:19:18.061Z,101645.81
2022-08-20T18:22:12.787Z,101650.28
2022-08-20T18:24:48.011Z,101648.53
2022-08-20T18:27:21.763Z,101653.03
2022-08-20T18:29:58.210Z,101646.78
2022-08-20T18:32:34.197Z,101660.16
2022-08-20T18:35:20.276Z,101655.75
2022-08-20T18:37:50.056Z,101657.56
2022-08-20T18:40:29.879Z,101660.22
2022-08-20T18:43:13.647Z,101658.44
2022-08-20T18:45:43.685Z,101665.59
2022-08-20T18:48:25.530Z,101662.94
2022-08-20T18:50:59.409Z,101665.63
2022-08-20T18:53:34.096Z,101660.28
2022-08-20T18:56:07.077Z,101662.06
2022-08-20T18:58:40.995Z,101660.31
2022-08-20T19:01:15.076Z,101664.78
2022-08-20T19:03:50.031Z,101664.81
2022-08-20T19:06:36.303Z,101661.22
2022-08-20T19:09:14.225Z,101659.47
2022-08-20T19:12:00.737Z,101661.25
2022-08-20T19:14:55.373Z,101665.72
2022-08-20T19:17:35.952Z,101668.38
2022-08-20T19:20:11.797Z,101666.59
2022-08-20T19:22:43.997Z,101663.03
2022-08-20T19:25:24.901Z,101658.59
2022-08-20T19:27:55.368Z,101662.16
2022-08-20T19:30:34.656Z,101668.41
2022-08-20T19:33:05.322Z,101663.03
2022-08-20T19:35:38.432Z,101662.16
2022-08-20T19:38:10.473Z,101665.72
2022-08-20T19:40:43.590Z,101670.19
2022-08-20T19:43:21.897Z,101663.03
2022-08-20T19:45:54.522Z,101655.00
2022-08-20T19:48:37.733Z,101659.47
2022-08-20T19:51:16.879Z,101663.91
2022-08-20T19:53:50.181Z,101659.47
2022-08-20T19:56:21.934Z,101658.56
2022-08-20T19:59:02.183Z,101661.25
2022-08-20T20:01:32.547Z,101651.44
2022-08-20T20:04:04.498Z,101658.56
2022-08-20T20:06:40.120Z,101648.66
2022-08-20T20:09:19.661Z,101653.13
2022-08-20T20:11:52.475Z,101652.22
2022-08-20T20:14:24.892Z,101653.09
2022-08-20T20:16:55.704Z,101653.09
2022-08-20T20:19:27.230Z,101641.47
2022-08-20T20:22:20.171Z,101647.72
2022-08-20T20:24:52.803Z,101640.53
2022-08-20T20:27:27.216Z,101638.72
2022-08-20T20:30:03.785Z,101651.19
2022-08-20T20:32:33.980Z,101652.06
2022-08-20T20:35:07.205Z,101647.59
2022-08-20T20:37:50.797Z,101647.59
2022-08-20T20:40:27.808Z,101649.34
2022-08-20T20:43:03.936Z,101649.28
2022-08-20T20:45:38.091Z,101651.03
2022-08-20T20:48:22.518Z,101647.41
2022-08-20T20:50:56.409Z,101651.84
2022-08-20T20:53:52.952Z,101651.81
2022-08-20T20:56:33.157Z,101650.88
2022-08-20T20:59:06.648Z,101647.28
2022-08-20T21:01:48.115Z,101641.91
2022-08-20T21:04:19.472Z,101644.56
2022-08-20T21:06:49.397Z,101639.22
2022-08-20T21:09:22.957Z,101633.81
2022-08-20T21:11:53.097Z,101629.38
2022-08-20T21:14:22.888Z,101630.22
2022-08-20T21:16:52.647Z,101634.66
2022-08-20T21:19:22.907Z,101636.38
2022-08-20T21:21:52.646Z,101632.78
2022-08-20T21:24:25.510Z,101632.75
2022-08-20T21:26:55.902Z,101630.06
2022-08-20T21:29:32.283Z,101631.78
2022-08-20T21:32:02.986Z,101633.56
2022-08-20T21:34:32.993Z,101626.38
2022-08-20T21:37:02.716Z,101628.16
2022-08-20T21:39:35.123Z,101631.66
2022-08-20T21:42:16.110Z,101636.91
2022-08-20T21:44:57.488Z,101635.13
2022-08-20T21:47:27.283Z,101635.97
2022-08-20T21:49:57.473Z,101635.94
2022-08-20T21:52:27.425Z,101635.91
2022-08-20T21:54:59.783Z,101631.41
2022-08-20T21:57:33.322Z,101633.16
2022-08-20T22:00:04.790Z,101631.34
2022-08-20T22:02:34.620Z,101640.19
2022-08-20T22:05:05.384Z,101634.84
2022-08-20T22:07:35.186Z,101627.69
2022-08-20T22:10:08.596Z,101628.56
2022-08-20T22:12:38.472Z,101625.84
2022-08-20T22:15:09.657Z,101627.63
2022-08-20T22:17:39.468Z,101621.38
2022-08-20T22:20:10.400Z,101623.13
2022-08-20T22:22:40.144Z,101619.53
2022-08-20T22:25:18.253Z,101620.41
2022-08-20T22:27:47.973Z,101619.47
2022-08-20T22:30:17.803Z,101625.69
2022-08-20T22:32:51.856Z,101623.88
2022-08-20T22:35:22.860Z,101622.94
2022-08-20T22:37:52.599Z,101622.03
2022-08-20T22:40:25.093Z,101628.19
2022-08-20T22:42:54.891Z,101623.72
2022-08-20T22:45:24.629Z,101629.91
2022-08-20T22:47:54.520Z,101626.34
2022-08-20T22:50:26.815Z,101626.28
2022-08-20T22:52:57.119Z,101622.75
2022-08-20T22:55:29.572Z,101627.13
2022-08-20T22:57:59.299Z,101623.50
2022-08-20T23:00:30.861Z,101630.56
2022-08-20T23:03:02.627Z,101629.66
2022-08-20T23:05:35.414Z,101629.63
2022-08-20T23:08:06.565Z,101628.69
2022-08-20T23:10:40.924Z,101626.00
2022-08-20T23:13:10.815Z,101627.75
2022-08-20T23:15:45.620Z,101623.28
2022-08-20T23:18:19.371Z,101619.72
2022-08-20T23:20:53.714Z,101617.03
2022-08-20T23:23:23.482Z,101616.09
2022-08-20T23:25:57.432Z,101614.28
2022-08-20T23:28:28.531Z,101614.25
2022-08-20T23:30:58.280Z,101615.09
2022-08-20T23:33:28.009Z,101616.84
2022-08-20T23:35:58.187Z,101618.59
2022-08-20T23:38:27.975Z,101615.88
2022-08-20T23:41:00.326Z,101612.31
2022-08-20T23:43:30.778Z,101604.28
2022-08-20T23:46:04.395Z,101601.56
2022-08-20T23:48:34.219Z,101602.41
2022-08-20T23:51:04.004Z,101598.81
2022-08-20T23:53:34.133Z,101604.09
2022-08-20T23:56:07.335Z,101605.88
2022-08-20T23:58:37.229Z,101610.25
